Time;durP1;ratioP1;P1;durP2;ratioP2;P2;SDS_P1;SDS_P2;PMS_P1;PMS_P2;Temp;Humidity;BMP_temperature;BMP_pressure;BME280_temperature;BME280_humidity;BME280_pressure;Samples;Min_cycle;Max_cycle;Signal;HPM_P1;HPM_P2
2024/04/19 00:00:53;;;;;;;0.98;0.98;;;8.90;99.90;;;;;;5429662;26;20068;-66
2024/04/19 00:03:19;;;;;;;1.77;1.33;;;8.90;99.90;;;;;;5436428;26;19998;-66
2024/04/19 00:05:45;;;;;;;5.30;1.00;;;8.90;99.90;;;;;;5437673;26;20011;-66
2024/04/19 00:08:29;;;;;;;1.88;1.20;;;8.90;99.90;;;;;;5433920;26;20813;-66
2024/04/19 00:10:55;;;;;;;4.00;1.40;;;8.90;99.90;;;;;;5429249;26;19991;-66
2024/04/19 00:13:22;;;;;;;3.38;1.30;;;8.90;99.90;;;;;;5433156;26;20003;-66
2024/04/19 00:15:48;;;;;;;2.03;1.13;;;8.90;99.90;;;;;;5433044;26;20002;-66
2024/04/19 00:18:13;;;;;;;1.60;1.05;;;8.90;99.90;;;;;;5432704;26;19995;-66
2024/04/19 00:20:39;;;;;;;1.30;1.20;;;8.90;99.90;;;;;;5434239;26;20747;-66
2024/04/19 00:23:08;;;;;;;3.70;1.50;;;8.90;99.90;;;;;;5436483;26;19998;-66
2024/04/19 00:25:35;;;;;;;1.80;1.05;;;8.90;99.90;;;;;;5435687;26;19994;-66
2024/04/19 00:28:01;;;;;;;1.65;1.10;;;8.90;99.90;;;;;;5433447;26;20368;-66
2024/04/19 00:30:27;;;;;;;6.15;1.45;;;8.90;99.90;;;;;;5436500;26;19998;-66
2024/04/19 00:32:53;;;;;;;1.45;1.17;;;8.90;99.90;;;;;;5433397;26;20008;-66
2024/04/19 00:35:21;;;;;;;1.80;1.10;;;8.80;99.90;;;;;;5431033;26;20034;-66
2024/04/19 00:37:47;;;;;;;1.30;1.20;;;8.90;99.90;;;;;;5433228;26;20807;-66
2024/04/19 00:40:31;;;;;;;1.90;1.40;;;8.80;99.90;;;;;;5433871;26;20003;-65
2024/04/19 00:42:58;;;;;;;1.42;1.00;;;8.90;99.90;;;;;;5431859;26;19991;-66
2024/04/19 00:45:39;;;;;;;3.40;1.73;;;8.80;99.90;;;;;;5431025;26;20006;-66
2024/04/19 00:48:11;;;;;;;2.38;1.45;;;8.80;99.90;;;;;;5434399;26;19999;-65
2024/04/19 00:50:56;;;;;;;;;;;8.80;99.90;;;;;;5431147;26;20006;-65
2024/04/19 00:53:26;;;;;;;1.30;1.20;;;8.80;99.90;;;;;;5429032;26;19924;-65
2024/04/19 00:55:59;;;;;;;2.67;1.20;;;8.80;99.90;;;;;;5433425;26;20006;-65
2024/04/19 00:58:26;;;;;;;1.95;1.38;;;8.80;99.90;;;;;;5434427;26;20083;-65
2024/04/19 01:00:53;;;;;;;1.15;1.05;;;8.80;99.90;;;;;;5433135;26;20006;-66
2024/04/19 01:03:19;;;;;;;2.85;1.23;;;8.80;99.90;;;;;;5434969;26;19995;-66
2024/04/19 01:05:45;;;;;;;3.53;1.55;;;8.90;99.90;;;;;;5431605;26;20064;-65
2024/04/19 01:08:27;;;;;;;1.33;1.00;;;8.90;99.90;;;;;;5427936;26;19998;-65
2024/04/19 01:10:53;;;;;;;3.03;1.30;;;9.00;99.90;;;;;;5430770;26;20006;-65
2024/04/19 01:13:19;;;;;;;4.05;1.40;;;9.00;99.90;;;;;;5434775;26;20913;-66
2024/04/19 01:15:47;;;;;;;2.70;1.40;;;9.00;99.90;;;;;;5433048;26;19995;-66
2024/04/19 01:18:12;;;;;;;2.28;1.67;;;9.00;99.90;;;;;;5433139;26;19991;-64
2024/04/19 01:20:38;;;;;;;3.03;1.50;;;9.00;99.90;;;;;;5433005;26;20005;-64
2024/04/19 01:23:05;;;;;;;1.48;1.17;;;9.00;99.90;;;;;;5432071;26;20453;-65
2024/04/19 01:25:37;;;;;;;1.23;0.95;;;9.00;99.90;;;;;;5433453;26;19994;-66
2024/04/19 01:28:11;;;;;;;3.95;1.15;;;9.00;99.90;;;;;;5430785;26;20009;-65
2024/04/19 01:30:44;;;;;;;3.25;1.40;;;9.10;99.90;;;;;;5430673;26;20018;-65
2024/04/19 01:33:11;;;;;;;3.88;1.08;;;9.00;99.90;;;;;;5431127;26;20032;-65
2024/04/19 01:35:38;;;;;;;5.53;1.25;;;9.00;99.90;;;;;;5429050;26;20237;-65
2024/04/19 01:38:04;;;;;;;3.20;1.60;;;9.00;99.90;;;;;;5426719;26;20000;-66
2024/04/19 01:40:29;;;;;;;2.15;1.27;;;9.00;99.90;;;;;;5433460;26;20876;-65
2024/04/19 01:42:55;;;;;;;2.80;1.30;;;9.10;99.90;;;;;;5434030;26;20007;-65
2024/04/19 01:45:21;;;;;;;4.00;1.20;;;9.00;99.90;;;;;;5433668;26;20011;-65
2024/04/19 01:47:47;;;;;;;2.03;1.30;;;9.00;99.90;;;;;;5433070;26;20014;-66
2024/04/19 01:50:13;;;;;;;2.35;1.00;;;9.00;99.90;;;;;;5434391;26;20339;-69
2024/04/19 01:52:39;;;;;;;1.60;1.50;;;8.90;99.90;;;;;;5434778;26;20110;-69
2024/04/19 01:55:05;;;;;;;4.45;1.33;;;8.90;99.90;;;;;;5436813;26;20003;-69
2024/04/19 01:57:31;;;;;;;1.70;1.10;;;8.90;99.90;;;;;;5433318;26;20046;-69
2024/04/19 01:59:57;;;;;;;4.43;0.90;;;8.80;99.90;;;;;;5439804;26;20072;-69
2024/04/19 02:02:24;;;;;;;1.63;1.08;;;8.80;99.90;;;;;;5436773;26;20015;-69
2024/04/19 02:04:50;;;;;;;1.58;0.98;;;8.70;99.90;;;;;;5439017;26;19999;-69
2024/04/19 02:07:16;;;;;;;1.80;0.98;;;8.70;99.90;;;;;;5430984;26;19998;-69
2024/04/19 02:09:41;;;;;;;1.98;1.00;;;8.60;99.90;;;;;;5436037;26;20038;-69
2024/04/19 02:12:07;;;;;;;5.25;1.20;;;8.60;99.90;;;;;;5438653;26;20396;-68
2024/04/19 02:14:34;;;;;;;3.95;1.17;;;8.60;99.90;;;;;;5438475;26;20034;-68
2024/04/19 02:16:59;;;;;;;4.13;1.30;;;8.60;99.90;;;;;;5434410;26;20644;-68
2024/04/19 02:19:26;;;;;;;2.60;1.23;;;8.50;99.90;;;;;;5435780;26;20039;-68
2024/04/19 02:21:52;;;;;;;1.20;0.95;;;8.60;99.90;;;;;;5430769;26;19999;-69
2024/04/19 02:24:17;;;;;;;3.05;0.80;;;8.50;99.90;;;;;;5437310;26;20105;-68
2024/04/19 02:26:51;;;;;;;3.90;1.40;;;8.50;99.90;;;;;;5432610;26;19999;-68
2024/04/19 02:32:01;;;;;;;3.90;1.35;;;8.50;99.90;;;;;;5427505;26;20003;-68
2024/04/19 02:34:26;;;;;;;3.03;1.67;;;8.50;99.90;;;;;;5439407;26;19999;-68
2024/04/19 02:36:52;;;;;;;4.20;1.30;;;8.60;99.90;;;;;;5437055;26;19995;-68
2024/04/19 02:39:18;;;;;;;2.95;1.20;;;8.60;99.90;;;;;;5438273;26;20014;-67
2024/04/19 02:41:44;;;;;;;5.22;1.30;;;8.60;99.90;;;;;;5433284;26;20182;-68
2024/04/19 02:44:10;;;;;;;2.88;1.25;;;8.60;99.90;;;;;;5435349;26;20067;-69
2024/04/19 02:46:35;;;;;;;4.18;1.30;;;8.70;99.90;;;;;;5434032;26;21747;-69
2024/04/19 02:49:01;;;;;;;4.05;1.40;;;8.70;99.90;;;;;;5436122;26;19998;-69
2024/04/19 02:51:27;;;;;;;2.33;1.30;;;8.70;99.90;;;;;;5430313;26;19991;-69
2024/04/19 02:53:53;;;;;;;3.45;1.33;;;8.70;99.90;;;;;;5436680;26;19998;-69
2024/04/19 02:56:18;;;;;;;4.88;1.30;;;8.70;99.90;;;;;;5431729;26;19999;-68
2024/04/19 02:58:44;;;;;;;5.00;1.42;;;8.70;99.90;;;;;;5436990;26;20400;-68
2024/04/19 03:01:10;;;;;;;5.50;1.50;;;8.70;99.90;;;;;;5434288;26;19995;-68
2024/04/19 03:03:36;;;;;;;4.20;1.70;;;8.70;99.90;;;;;;5434602;26;20010;-68
2024/04/19 03:06:02;;;;;;;4.53;1.42;;;8.60;99.90;;;;;;5433351;26;20013;-68
2024/04/19 03:08:28;;;;;;;3.55;1.27;;;8.50;99.90;;;;;;5433762;26;20509;-68
2024/04/19 03:10:54;;;;;;;3.40;2.33;;;8.40;99.90;;;;;;5432036;26;19999;-69
2024/04/19 03:13:19;;;;;;;2.63;1.45;;;8.30;99.90;;;;;;5433355;26;19995;-68
2024/04/19 03:15:45;;;;;;;4.60;1.70;;;8.40;99.90;;;;;;5434199;26;19995;-68
2024/04/19 03:18:30;;;;;;;2.78;1.77;;;8.40;99.90;;;;;;5432770;26;20005;-68
2024/04/19 03:21:00;;;;;;;7.50;2.42;;;8.50;99.90;;;;;;5431601;26;20328;-69
2024/04/19 03:23:27;;;;;;;4.57;1.88;;;8.40;99.90;;;;;;5433605;26;20825;-68
2024/04/19 03:25:57;;;;;;;7.43;2.25;;;8.40;99.90;;;;;;5431283;26;20013;-68
2024/04/19 03:28:22;;;;;;;2.80;2.33;;;8.40;99.90;;;;;;5437086;26;20017;-68
2024/04/19 03:30:48;;;;;;;4.15;2.00;;;8.30;99.90;;;;;;5432808;26;20011;-68
2024/04/19 03:33:14;;;;;;;4.97;1.85;;;8.30;99.90;;;;;;5432008;26;20009;-68
2024/04/19 03:35:43;;;;;;;2.90;1.88;;;8.30;99.90;;;;;;5435724;26;19998;-68
2024/04/19 03:38:09;;;;;;;4.30;2.30;;;8.30;99.90;;;;;;5428133;26;20063;-68
2024/04/19 03:40:35;;;;;;;4.35;2.25;;;8.40;99.90;;;;;;5431012;26;19998;-68
2024/04/19 03:43:01;;;;;;;5.43;2.13;;;8.40;99.90;;;;;;5431585;26;20807;-68
2024/04/19 03:45:44;;;;;;;4.97;2.20;;;8.50;99.90;;;;;;5429724;26;20562;-68
2024/04/19 03:48:11;;;;;;;3.35;1.95;;;8.40;99.90;;;;;;5434070;26;19999;-69
2024/04/19 03:50:37;;;;;;;5.75;2.15;;;8.40;99.90;;;;;;5433882;26;20003;-68
2024/04/19 03:53:04;;;;;;;9.13;2.30;;;8.40;99.90;;;;;;5430332;26;20538;-68
2024/04/19 03:55:30;;;;;;;4.50;2.22;;;8.40;99.90;;;;;;5435209;26;19991;-68
2024/04/19 03:57:56;;;;;;;4.40;2.00;;;8.40;99.90;;;;;;5429077;26;20354;-68
2024/04/19 04:00:22;;;;;;;7.65;2.53;;;8.30;99.90;;;;;;5432379;26;19994;-68
2024/04/19 04:02:50;;;;;;;7.68;2.00;;;8.30;99.90;;;;;;5431481;26;20029;-68
2024/04/19 04:05:16;;;;;;;4.80;1.77;;;8.30;99.90;;;;;;5432794;26;20983;-68
2024/04/19 04:07:42;;;;;;;6.53;2.13;;;8.30;99.90;;;;;;5434023;26;20010;-70
2024/04/19 04:10:07;;;;;;;4.25;2.03;;;8.30;99.90;;;;;;5434478;26;20792;-69
2024/04/19 04:12:33;;;;;;;7.07;2.05;;;8.20;99.90;;;;;;5429090;26;20050;-69
2024/04/19 04:14:59;;;;;;;5.85;2.03;;;8.20;99.90;;;;;;5431968;26;20014;-69
2024/04/19 04:17:25;;;;;;;5.25;1.55;;;8.20;99.90;;;;;;5430986;26;20042;-69
2024/04/19 04:19:51;;;;;;;5.25;1.90;;;8.20;99.90;;;;;;5434325;26;20139;-69
2024/04/19 04:22:17;;;;;;;4.75;1.80;;;8.20;99.90;;;;;;5431942;26;20015;-69
2024/04/19 04:24:42;;;;;;;8.90;2.20;;;8.20;99.90;;;;;;5433013;26;20002;-69
2024/04/19 04:27:08;;;;;;;5.03;2.38;;;8.20;99.90;;;;;;5431613;26;19999;-69
2024/04/19 04:29:34;;;;;;;7.18;2.70;;;8.30;99.90;;;;;;5436007;26;20014;-68
2024/04/19 04:32:00;;;;;;;4.53;2.30;;;8.30;99.90;;;;;;5432482;26;19998;-68
2024/04/19 04:34:26;;;;;;;6.03;2.45;;;8.30;99.90;;;;;;5432880;26;20003;-68
2024/04/19 04:36:51;;;;;;;5.88;2.70;;;8.40;99.90;;;;;;5428695;26;20447;-68
2024/04/19 04:39:17;;;;;;;5.00;2.67;;;8.40;99.90;;;;;;5433675;26;20021;-69
2024/04/19 04:41:43;;;;;;;6.43;2.78;;;8.40;99.90;;;;;;5432381;26;20011;-68
2024/04/19 04:44:10;;;;;;;8.52;2.78;;;8.40;99.90;;;;;;5429376;26;20010;-68
2024/04/19 04:46:37;;;;;;;9.90;3.42;;;8.20;99.90;;;;;;5432831;26;20003;-70
2024/04/19 04:49:04;;;;;;;5.07;2.97;;;8.00;99.90;;;;;;5427831;26;20016;-69
2024/04/19 04:51:30;;;;;;;8.13;3.08;;;8.00;99.90;;;;;;5432570;26;19995;-69
2024/04/19 04:53:56;;;;;;;6.07;2.60;;;8.00;99.90;;;;;;5428837;26;20014;-69
2024/04/19 04:56:22;;;;;;;5.38;2.88;;;8.10;99.90;;;;;;5433624;26;20002;-69
2024/04/19 04:58:48;;;;;;;6.45;2.80;;;8.20;99.90;;;;;;5433712;26;20010;-69
2024/04/19 05:01:14;;;;;;;6.18;2.70;;;8.30;99.90;;;;;;5432050;26;20089;-68
2024/04/19 05:03:40;;;;;;;3.40;2.47;;;8.30;99.90;;;;;;5433948;26;20425;-69
2024/04/19 05:06:06;;;;;;;7.70;2.70;;;8.40;99.90;;;;;;5423154;26;20097;-68
2024/04/19 05:08:32;;;;;;;4.93;2.50;;;8.50;99.90;;;;;;5430818;26;20002;-69
2024/04/19 05:10:58;;;;;;;4.53;2.78;;;8.60;99.90;;;;;;5431077;26;20017;-65
2024/04/19 05:13:23;;;;;;;6.10;2.90;;;8.60;99.90;;;;;;5427211;26;20013;-65
2024/04/19 05:15:50;;;;;;;4.53;2.50;;;8.70;99.90;;;;;;5434298;26;20039;-66
2024/04/19 05:18:19;;;;;;;3.65;2.42;;;8.70;99.90;;;;;;5433073;26;20363;-66
2024/04/19 05:20:46;;;;;;;3.53;2.05;;;8.80;99.90;;;;;;5430265;26;19999;-66
2024/04/19 05:23:12;;;;;;;6.07;2.63;;;8.80;99.90;;;;;;5430191;26;19995;-66
2024/04/19 05:25:38;;;;;;;3.38;2.53;;;9.00;99.90;;;;;;5438687;26;20442;-65
2024/04/19 05:28:05;;;;;;;3.47;2.00;;;9.00;99.90;;;;;;5432131;26;19995;-65
2024/04/19 05:30:31;;;;;;;4.75;2.67;;;8.90;99.90;;;;;;5436494;26;20109;-68
2024/04/19 05:32:58;;;;;;;3.85;2.65;;;8.90;99.90;;;;;;5432188;26;20545;-69
2024/04/19 05:35:24;;;;;;;5.07;2.92;;;8.90;99.90;;;;;;5435358;26;20002;-69
2024/04/19 05:37:55;;;;;;;4.20;2.20;;;8.80;99.90;;;;;;5435859;26;20005;-69
2024/04/19 05:40:20;;;;;;;3.45;2.30;;;8.70;99.90;;;;;;5435258;26;19995;-69
2024/04/19 05:42:46;;;;;;;6.55;2.65;;;8.50;99.90;;;;;;5434614;26;20782;-68
2024/04/19 05:45:12;;;;;;;5.70;2.20;;;8.40;99.90;;;;;;5434835;26;19999;-69
2024/04/19 05:47:38;;;;;;;3.22;2.10;;;8.30;99.90;;;;;;5428011;26;20564;-69
2024/04/19 05:50:04;;;;;;;3.33;2.35;;;8.40;99.90;;;;;;5434044;26;20010;-69
2024/04/19 05:52:31;;;;;;;4.78;2.38;;;8.50;99.90;;;;;;5437083;26;20010;-69
2024/04/19 05:54:57;;;;;;;7.07;2.20;;;8.60;99.90;;;;;;5433467;26;19999;-69
2024/04/19 05:57:23;;;;;;;2.67;2.10;;;8.50;99.90;;;;;;5433259;26;20014;-69
2024/04/19 05:59:49;;;;;;;2.58;2.00;;;8.60;99.90;;;;;;5435151;26;19998;-68
2024/04/19 06:02:14;;;;;;;4.72;2.55;;;8.70;99.90;;;;;;5437026;26;20013;-69
2024/04/19 06:04:40;;;;;;;5.07;2.63;;;8.60;99.90;;;;;;5436949;26;20003;-69
2024/04/19 06:07:06;;;;;;;6.10;2.80;;;8.70;99.90;;;;;;5434424;26;20025;-68
2024/04/19 06:09:32;;;;;;;6.50;3.03;;;8.60;99.90;;;;;;5438396;26;20052;-66
2024/04/19 06:12:01;;;;;;;3.35;2.63;;;8.40;99.90;;;;;;5434891;26;20474;-68
2024/04/19 06:14:27;;;;;;;3.90;2.95;;;8.40;99.90;;;;;;5434589;26;19995;-68
2024/04/19 06:16:53;;;;;;;5.40;3.03;;;8.20;99.90;;;;;;5439093;26;19995;-68
2024/04/19 06:19:19;;;;;;;4.50;3.20;;;8.10;99.90;;;;;;5435542;26;20510;-68
2024/04/19 06:21:45;;;;;;;4.35;2.92;;;8.00;99.90;;;;;;5437904;26;20056;-68
2024/04/19 06:24:11;;;;;;;7.07;3.08;;;8.00;99.90;;;;;;5434786;26;20022;-68
2024/04/19 06:26:38;;;;;;;5.55;3.10;;;7.90;99.90;;;;;;5435129;26;20015;-68
2024/04/19 06:29:04;;;;;;;7.00;2.88;;;7.80;99.90;;;;;;5431885;26;19995;-67
2024/04/19 06:31:29;;;;;;;5.53;2.88;;;7.80;99.90;;;;;;5439267;26;20018;-68
2024/04/19 06:33:55;;;;;;;5.30;2.83;;;7.70;99.90;;;;;;5431914;26;20044;-68
2024/04/19 06:36:21;;;;;;;6.82;3.33;;;7.70;99.90;;;;;;5434792;26;20017;-69
2024/04/19 06:38:47;;;;;;;4.57;2.88;;;7.40;99.90;;;;;;5432459;26;19995;-66
2024/04/19 06:41:13;;;;;;;4.05;2.97;;;7.30;99.90;;;;;;5435925;26;20013;-66
2024/04/19 06:43:38;;;;;;;8.27;3.35;;;7.30;99.90;;;;;;5430861;26;20006;-64
2024/04/19 06:46:04;;;;;;;4.93;3.13;;;7.30;99.90;;;;;;5438415;26;20075;-64
2024/04/19 06:48:30;;;;;;;6.68;3.17;;;7.50;99.90;;;;;;5433093;26;20015;-64
2024/04/19 06:50:56;;;;;;;6.30;3.30;;;7.60;99.90;;;;;;5433114;26;20061;-64
2024/04/19 06:53:21;;;;;;;8.38;3.55;;;7.70;99.90;;;;;;5433918;26;19995;-64
2024/04/19 06:55:48;;;;;;;6.95;3.13;;;7.80;99.90;;;;;;5436821;26;20003;-65
2024/04/19 06:58:14;;;;;;;8.98;4.63;;;7.90;99.90;;;;;;5431638;26;19996;-65
2024/04/19 07:00:40;;;;;;;6.43;3.80;;;8.00;99.90;;;;;;5434714;26;20014;-65
2024/04/19 07:03:05;;;;;;;5.63;3.03;;;8.20;99.90;;;;;;5435963;26;20393;-65
2024/04/19 07:05:31;;;;;;;5.35;3.17;;;8.30;99.90;;;;;;5436873;26;19998;-65
2024/04/19 07:07:57;;;;;;;9.20;4.25;;;8.30;99.90;;;;;;5436315;26;20014;-65
2024/04/19 07:10:23;;;;;;;6.10;3.05;;;8.40;99.90;;;;;;5434561;26;19999;-66
2024/04/19 07:12:50;;;;;;;5.95;2.97;;;8.50;99.90;;;;;;5431580;26;20009;-67
2024/04/19 07:15:16;;;;;;;4.72;2.63;;;8.50;99.90;;;;;;5436578;26;20009;-67
2024/04/19 07:17:42;;;;;;;4.70;3.20;;;8.60;99.90;;;;;;5432600;26;20031;-67
2024/04/19 07:20:08;;;;;;;5.45;3.00;;;8.70;99.90;;;;;;5430048;26;20003;-68
2024/04/19 07:22:35;;;;;;;6.68;3.05;;;8.70;99.90;;;;;;5433804;26;19999;-69
2024/04/19 07:25:02;;;;;;;4.38;2.92;;;8.70;99.90;;;;;;5431076;26;20837;-70
2024/04/19 07:27:28;;;;;;;3.65;2.70;;;8.60;99.90;;;;;;5432461;26;20002;-67
2024/04/19 07:29:54;;;;;;;4.45;3.00;;;8.70;99.90;;;;;;5432310;26;20002;-65
2024/04/19 07:32:20;;;;;;;4.57;3.05;;;8.70;99.90;;;;;;5435730;26;20014;-66
2024/04/19 07:34:46;;;;;;;5.88;3.70;;;8.80;99.90;;;;;;5430735;26;19999;-66
2024/04/19 07:37:12;;;;;;;7.53;3.88;;;8.70;99.90;;;;;;5435420;26;20010;-66
2024/04/19 07:39:38;;;;;;;6.05;4.13;;;8.80;99.90;;;;;;5436223;26;19999;-69
2024/04/19 07:42:04;;;;;;;5.07;3.17;;;8.60;99.90;;;;;;5434489;26;20010;-69
2024/04/19 07:44:30;;;;;;;4.57;3.08;;;8.50;99.90;;;;;;5433196;26;20913;-69
2024/04/19 07:46:56;;;;;;;7.15;3.80;;;8.60;99.90;;;;;;5438580;26;20003;-69
2024/04/19 07:49:21;;;;;;;7.07;5.15;;;8.60;99.90;;;;;;5430057;26;20516;-70
2024/04/19 07:51:48;;;;;;;3.63;3.25;;;8.80;99.90;;;;;;5433798;26;20006;-68
2024/04/19 07:54:13;;;;;;;7.10;3.58;;;8.80;99.90;;;;;;5434180;26;20002;-69
2024/04/19 07:56:41;;;;;;;7.28;3.88;;;8.70;99.90;;;;;;5437607;26;20447;-72
2024/04/19 07:59:08;;;;;;;6.47;3.45;;;8.70;99.90;;;;;;5426079;26;20825;-72
2024/04/19 08:01:35;;;;;;;5.32;3.83;;;8.70;99.90;;;;;;5434446;26;20039;-71
2024/04/19 08:04:01;;;;;;;6.05;3.30;;;8.70;99.90;;;;;;5431360;26;20002;-72
2024/04/19 08:06:27;;;;;;;5.55;3.10;;;8.80;99.90;;;;;;5432455;26;20099;-72
2024/04/19 08:08:52;;;;;;;5.10;3.20;;;8.80;99.90;;;;;;5431584;26;20560;-72
2024/04/19 08:11:18;;;;;;;11.52;5.95;;;8.90;99.90;;;;;;5436013;26;20172;-70
2024/04/19 08:13:44;;;;;;;7.50;4.88;;;9.00;99.90;;;;;;5432044;26;20561;-71
2024/04/19 08:16:10;;;;;;;4.97;3.22;;;9.00;99.90;;;;;;5432097;26;20011;-72
2024/04/19 08:18:36;;;;;;;7.88;3.60;;;8.90;99.90;;;;;;5428913;26;20500;-71
2024/04/19 08:21:01;;;;;;;4.40;3.50;;;8.80;99.90;;;;;;5433108;26;19998;-71
2024/04/19 08:23:27;;;;;;;6.70;3.35;;;8.90;99.90;;;;;;5432648;26;20002;-71
2024/04/19 08:25:53;;;;;;;6.63;4.15;;;9.00;99.90;;;;;;5437530;26;20006;-71
2024/04/19 08:28:19;;;;;;;8.75;3.88;;;9.00;99.90;;;;;;5434196;26;20005;-71
2024/04/19 08:30:46;;;;;;;6.93;3.88;;;8.90;99.90;;;;;;5437662;26;20005;-72
2024/04/19 08:33:12;;;;;;;6.43;3.78;;;8.90;99.90;;;;;;5431498;26;20024;-71
2024/04/19 08:35:37;;;;;;;9.23;3.80;;;8.70;99.90;;;;;;5436699;26;20462;-71
2024/04/19 08:38:03;;;;;;;4.95;3.20;;;8.80;99.90;;;;;;5433683;26;21528;-71
2024/04/19 08:40:29;;;;;;;7.00;3.90;;;8.80;99.90;;;;;;5429291;26;20938;-73
2024/04/19 08:42:56;;;;;;;10.70;8.07;;;8.70;99.90;;;;;;5433177;26;19999;-68
2024/04/19 08:45:23;;;;;;;6.25;4.15;;;8.50;99.90;;;;;;5432940;26;20911;-69
2024/04/19 08:47:50;;;;;;;6.97;4.95;;;8.70;99.90;;;;;;5431914;26;20006;-68
2024/04/19 08:50:16;;;;;;;6.82;4.75;;;8.70;99.90;;;;;;5432074;26;20542;-68
2024/04/19 08:52:46;;;;;;;5.90;4.45;;;8.60;99.90;;;;;;5430378;26;20010;-68
2024/04/19 08:55:12;;;;;;;6.53;4.38;;;8.50;99.90;;;;;;5429932;26;20023;-68
2024/04/19 08:57:42;;;;;;;5.80;4.32;;;8.30;99.90;;;;;;5432884;26;20037;-68
2024/04/19 09:00:11;;;;;;;5.70;4.15;;;8.50;99.90;;;;;;5430885;26;20003;-69
2024/04/19 09:02:37;;;;;;;6.80;4.35;;;8.60;99.90;;;;;;5433064;26;20007;-68
2024/04/19 09:05:03;;;;;;;6.72;3.88;;;8.60;99.90;;;;;;5428078;26;20013;-67
2024/04/19 09:07:32;;;;;;;7.13;4.20;;;8.50;99.90;;;;;;5438744;26;20003;-67
2024/04/19 09:09:58;;;;;;;7.05;4.15;;;8.50;99.90;;;;;;5431515;26;19999;-67
2024/04/19 09:12:24;;;;;;;9.95;5.47;;;8.70;99.90;;;;;;5437156;26;20011;-67
2024/04/19 09:14:54;;;;;;;12.43;8.05;;;8.70;99.90;;;;;;5434516;26;20003;-67
2024/04/19 09:17:20;;;;;;;6.07;5.18;;;8.70;99.90;;;;;;5430057;26;19991;-68
2024/04/19 09:20:15;;;;;;;6.60;4.30;;;8.50;99.90;;;;;;5428315;26;20396;-69
2024/04/19 09:22:41;;;;;;;7.10;4.18;;;8.40;99.90;;;;;;5422096;26;19991;-69
2024/04/19 09:25:07;;;;;;;6.00;3.90;;;8.50;99.90;;;;;;5433191;26;19999;-69
2024/04/19 09:27:34;;;;;;;5.25;4.18;;;8.60;99.90;;;;;;5440185;26;20082;-69
2024/04/19 09:30:01;;;;;;;6.97;4.03;;;8.50;99.90;;;;;;5429489;26;19995;-67
2024/04/19 09:32:28;;;;;;;5.43;3.95;;;8.50;99.90;;;;;;5440543;26;20742;-69
2024/04/19 09:34:54;;;;;;;5.97;4.00;;;8.50;99.90;;;;;;5431919;26;20347;-69
2024/04/19 09:37:22;;;;;;;6.43;4.35;;;8.40;99.90;;;;;;5431859;26;19998;-69
2024/04/19 09:39:47;;;;;;;5.05;3.70;;;8.40;99.90;;;;;;5434421;26;19998;-76
2024/04/19 09:42:14;;;;;;;5.70;3.42;;;8.30;99.90;;;;;;5438181;26;19999;-69
2024/04/19 09:44:42;;;;;;;6.10;4.28;;;8.20;99.90;;;;;;5434510;26;19995;-69
2024/04/19 09:47:10;;;;;;;7.55;4.30;;;8.10;99.90;;;;;;5440686;26;20053;-70
2024/04/19 09:49:42;;;;;;;7.55;4.25;;;8.10;99.90;;;;;;5433589;26;20466;-69
2024/04/19 09:52:18;;;;;;;6.60;4.35;;;8.10;99.90;;;;;;5438921;26;20021;-69
2024/04/19 09:54:50;;;;;;;7.32;3.78;;;8.10;99.90;;;;;;5432449;26;20030;-69
2024/04/19 09:57:21;;;;;;;10.15;6.75;;;8.20;99.90;;;;;;5435972;26;20070;-69
2024/04/19 09:59:48;;;;;;;6.22;4.65;;;8.30;99.90;;;;;;5438575;26;19995;-69
2024/04/19 10:02:15;;;;;;;6.13;4.32;;;8.30;99.90;;;;;;5436579;26;20009;-69
2024/04/19 10:04:41;;;;;;;4.82;3.70;;;8.30;99.90;;;;;;5437073;26;20010;-70
2024/04/19 10:07:10;;;;;;;6.63;4.47;;;7.80;99.90;;;;;;5440117;26;20006;-68
2024/04/19 10:09:38;;;;;;;5.93;4.28;;;7.80;99.90;;;;;;5436703;26;19995;-69
2024/04/19 10:12:04;;;;;;;5.90;4.15;;;7.90;99.90;;;;;;5433292;26;20074;-68
2024/04/19 10:14:30;;;;;;;9.35;3.70;;;7.90;99.90;;;;;;5429252;26;20007;-69
2024/04/19 10:16:56;;;;;;;6.65;3.85;;;7.90;99.90;;;;;;5438622;26;19995;-68
2024/04/19 10:19:22;;;;;;;5.63;4.20;;;8.10;99.90;;;;;;5430871;26;20010;-70
2024/04/19 10:21:54;;;;;;;4.57;3.53;;;8.10;99.90;;;;;;5437267;26;20002;-70
2024/04/19 10:24:20;;;;;;;6.03;4.88;;;8.10;99.90;;;;;;5435614;26;19991;-68
2024/04/19 10:26:50;;;;;;;6.00;4.30;;;8.20;99.90;;;;;;5439771;26;20524;-72
2024/04/19 10:29:26;;;;;;;3.72;2.53;;;8.30;99.90;;;;;;5434539;26;20103;-67
2024/04/19 10:31:53;;;;;;;3.75;2.30;;;8.30;99.90;;;;;;5434258;26;20035;-68
2024/04/19 10:34:21;;;;;;;5.35;2.63;;;8.00;99.90;;;;;;5437278;26;19999;-68
2024/04/19 10:36:47;;;;;;;8.35;3.00;;;7.80;99.90;;;;;;5438804;26;19999;-70
2024/04/19 10:39:13;;;;;;;3.53;1.90;;;7.60;99.90;;;;;;5430396;26;19996;-68
2024/04/19 10:41:52;;;;;;;2.00;1.75;;;7.30;99.90;;;;;;5432644;26;20010;-70
2024/04/19 10:44:18;;;;;;;1.85;1.38;;;7.40;99.90;;;;;;5432188;26;20464;-70
2024/04/19 10:46:44;;;;;;;1.48;1.27;;;7.50;99.90;;;;;;5430750;26;20660;-70
2024/04/19 10:49:15;;;;;;;2.22;0.98;;;7.70;99.90;;;;;;5429915;26;20000;-70
2024/04/19 10:51:41;;;;;;;2.70;1.30;;;7.80;99.90;;;;;;5431934;26;20046;-70
2024/04/19 10:54:07;;;;;;;1.98;1.25;;;7.80;99.90;;;;;;5432974;26;19999;-70
2024/04/19 10:56:36;;;;;;;1.92;1.27;;;7.80;99.90;;;;;;5433446;26;19995;-70
2024/04/19 10:59:02;;;;;;;1.80;1.15;;;7.80;99.90;;;;;;5429720;26;20568;-69
2024/04/19 11:01:27;;;;;;;2.45;1.40;;;7.60;99.90;;;;;;5433928;26;19999;-69
2024/04/19 11:03:53;;;;;;;1.45;1.10;;;7.60;99.90;;;;;;5435890;26;20032;-69
2024/04/19 11:06:19;;;;;;;3.60;1.30;;;7.50;99.90;;;;;;5435193;26;20002;-69
2024/04/19 11:08:45;;;;;;;1.50;1.02;;;7.30;99.90;;;;;;5434124;26;19995;-69
2024/04/19 11:11:11;;;;;;;1.60;1.20;;;7.30;99.90;;;;;;5427306;26;20347;-69
2024/04/19 11:13:37;;;;;;;1.77;1.33;;;7.30;99.90;;;;;;5426754;26;20010;-69
2024/04/19 11:16:03;;;;;;;0.90;0.75;;;7.50;99.90;;;;;;5436092;26;20854;-69
2024/04/19 11:18:29;;;;;;;0.52;0.52;;;7.40;99.90;;;;;;5432693;26;20079;-68
2024/04/19 11:20:55;;;;;;;3.72;0.50;;;7.50;99.90;;;;;;5432669;26;20546;-69
2024/04/19 11:23:21;;;;;;;1.05;0.77;;;7.40;99.90;;;;;;5431937;26;20004;-69
2024/04/19 11:25:47;;;;;;;0.60;0.60;;;7.50;99.90;;;;;;5430727;26;20003;-69
2024/04/19 11:28:14;;;;;;;3.72;1.08;;;7.50;99.90;;;;;;5431553;26;20007;-68
2024/04/19 11:30:40;;;;;;;3.60;2.05;;;7.40;99.90;;;;;;5430790;26;20080;-69
2024/04/19 11:33:14;;;;;;;1.10;1.00;;;7.40;99.90;;;;;;5427079;26;20022;-68
2024/04/19 11:35:42;;;;;;;1.35;0.80;;;7.60;99.90;;;;;;5430536;26;20042;-68
2024/04/19 11:38:14;;;;;;;0.82;0.63;;;7.70;99.90;;;;;;5436205;26;19999;-69
2024/04/19 11:40:41;;;;;;;5.10;2.47;;;7.70;99.90;;;;;;5430103;26;20376;-68
2024/04/19 11:43:06;;;;;;;1.25;0.50;;;7.70;99.90;;;;;;5436608;26;19999;-68
2024/04/19 11:45:32;;;;;;;0.98;0.60;;;7.60;99.90;;;;;;5433357;26;20010;-68
2024/04/19 11:47:59;;;;;;;2.22;1.23;;;7.50;99.90;;;;;;5437230;26;19995;-69
2024/04/19 11:50:28;;;;;;;4.20;1.00;;;7.60;99.90;;;;;;5429197;26;20141;-69
2024/04/19 11:52:53;;;;;;;0.63;0.63;;;7.50;99.90;;;;;;5434264;26;20482;-69
2024/04/19 11:55:19;;;;;;;1.17;0.90;;;7.50;99.90;;;;;;5429373;26;20025;-69
2024/04/19 11:57:45;;;;;;;1.00;0.90;;;7.70;99.90;;;;;;5433847;26;20509;-69
2024/04/19 12:00:12;;;;;;;5.65;2.97;;;7.50;99.90;;;;;;5429058;26;20459;-69
2024/04/19 12:02:38;;;;;;;1.15;0.90;;;7.60;99.90;;;;;;5434500;26;20018;-68
2024/04/19 12:05:04;;;;;;;1.30;0.70;;;7.60;99.90;;;;;;5426968;26;20007;-68
2024/04/19 12:07:30;;;;;;;1.58;1.05;;;7.60;99.90;;;;;;5437429;26;20443;-68
2024/04/19 12:09:56;;;;;;;3.17;1.73;;;7.60;99.90;;;;;;5434348;26;20003;-69
2024/04/19 12:12:25;;;;;;;0.70;0.70;;;7.70;99.90;;;;;;5432583;26;20128;-69
2024/04/19 12:14:51;;;;;;;0.65;0.60;;;7.70;99.90;;;;;;5432029;26;20003;-69
2024/04/19 12:17:17;;;;;;;2.42;0.80;;;7.70;99.90;;;;;;5432865;26;20451;-69
2024/04/19 12:19:43;;;;;;;8.65;3.70;;;7.80;99.90;;;;;;5429993;26;20515;-69
2024/04/19 12:22:09;;;;;;;1.52;1.10;;;8.30;99.90;;;;;;5432776;26;20006;-69
2024/04/19 12:24:36;;;;;;;1.33;1.08;;;8.70;99.90;;;;;;5432881;26;20003;-68
2024/04/19 12:27:06;;;;;;;2.40;1.10;;;8.80;99.90;;;;;;5435684;26;19995;-68
2024/04/19 12:29:36;;;;;;;1.73;0.90;;;8.90;99.90;;;;;;5430920;26;20002;-68
2024/04/19 12:32:04;;;;;;;1.10;0.95;;;9.10;99.90;;;;;;5429825;26;20093;-69
2024/04/19 12:34:30;;;;;;;2.17;0.95;;;9.40;99.90;;;;;;5426227;26;20027;-69
2024/04/19 12:36:59;;;;;;;4.78;1.10;;;9.50;99.90;;;;;;5434122;26;20375;-68
2024/04/19 12:39:25;;;;;;;1.30;0.90;;;9.40;99.90;;;;;;5431220;26;20013;-69
2024/04/19 12:41:53;;;;;;;1.67;1.00;;;9.40;99.90;;;;;;5434240;26;20051;-70
2024/04/19 12:44:19;;;;;;;0.93;0.80;;;9.40;99.90;;;;;;5432794;26;19991;-69
2024/04/19 12:46:45;;;;;;;1.23;1.13;;;9.30;99.90;;;;;;5429020;26;20006;-70
2024/04/19 12:49:15;;;;;;;1.02;0.88;;;9.10;99.90;;;;;;5432249;26;20072;-70
2024/04/19 12:51:41;;;;;;;1.08;0.98;;;9.00;99.90;;;;;;5427451;26;20019;-69
2024/04/19 12:54:06;;;;;;;1.25;1.15;;;8.80;99.90;;;;;;5430667;26;20005;-70
2024/04/19 12:56:33;;;;;;;1.30;1.10;;;8.80;99.90;;;;;;5448362;26;20100;-68
2024/04/19 12:59:00;;;;;;;3.53;1.30;;;8.80;99.90;;;;;;5429635;26;20034;-68